Time;durP1;ratioP1;P1;durP2;ratioP2;P2;SDS_P1;SDS_P2;PMS_P1;PMS_P2;Temp;Humidity;BMP_temperature;BMP_pressure;BME280_temperature;BME280_humidity;BME280_pressure;Samples;Min_cycle;Max_cycle;Signal;HPM_P1;HPM_P2
2022/12/19 00:01:30;;;;;;;36.93;14.03;;;;;;;-2.26;77.28;101588.09;5044925;28;20284;-66
2022/12/19 00:03:59;;;;;;;37.33;14.57;;;;;;;-2.24;77.61;101593.41;5046086;28;20199;-66
2022/12/19 00:06:27;;;;;;;30.23;13.20;;;;;;;-2.25;77.66;101589.00;5044939;28;20219;-67
2022/12/19 00:08:57;;;;;;;33.87;14.30;;;;;;;-2.28;77.64;101580.97;5042974;28;20202;-66
2022/12/19 00:11:24;;;;;;;31.43;14.27;;;;;;;-2.29;77.72;101582.66;5045287;28;20199;-66
2022/12/19 00:13:51;;;;;;;35.50;15.77;;;;;;;-2.17;77.36;101589.63;5044004;28;20628;-65
2022/12/19 00:16:23;;;;;;;34.93;14.60;;;;;;;-2.24;77.59;101589.13;5045308;28;20280;-66
2022/12/19 00:18:51;;;;;;;39.63;15.27;;;;;;;-2.24;77.85;101589.13;5047292;28;20724;-66
2022/12/19 00:21:23;;;;;;;35.30;13.13;;;;;;;-2.16;77.51;101568.09;5043317;28;20668;-66
2022/12/19 00:23:49;;;;;;;35.93;15.40;;;;;;;-2.25;77.94;101579.53;5045970;28;20278;-68
2022/12/19 00:26:23;;;;;;;36.70;13.80;;;;;;;-2.23;78.51;101580.56;5044777;28;20544;-67
2022/12/19 00:28:53;;;;;;;35.67;14.80;;;;;;;-2.12;77.35;101573.66;5046652;28;20190;-67
2022/12/19 00:31:21;;;;;;;35.47;13.90;;;;;;;-2.15;77.13;101569.91;5039969;28;20196;-67
2022/12/19 00:33:48;;;;;;;33.47;14.87;;;;;;;-2.22;77.52;101559.03;5035901;28;20593;-67
2022/12/19 00:36:18;;;;;;;31.43;14.37;;;;;;;-2.13;77.50;101557.97;5045883;28;20729;-66
2022/12/19 00:38:50;;;;;;;32.27;13.63;;;;;;;-2.13;77.62;101556.28;5035868;28;20211;-66
2022/12/19 00:41:21;;;;;;;32.90;13.27;;;;;;;-2.14;77.66;101553.56;5037712;28;20278;-66
2022/12/19 00:43:53;;;;;;;35.87;14.37;;;;;;;-2.25;78.07;101556.19;5034595;28;20199;-66
2022/12/19 00:46:19;;;;;;;38.40;15.50;;;;;;;-2.26;78.20;101553.47;5037211;28;20667;-66
2022/12/19 00:48:46;;;;;;;34.80;14.93;;;;;;;-2.17;77.53;101561.09;5039388;28;20599;-66
2022/12/19 00:51:15;;;;;;;38.00;14.20;;;;;;;-2.22;78.40;101548.66;5032987;28;20199;-67
2022/12/19 00:53:43;;;;;;;36.90;14.90;;;;;;;-2.14;78.18;101562.25;5041332;28;20274;-67
2022/12/19 00:56:13;;;;;;;36.83;15.30;;;;;;;-2.18;78.64;101552.41;5040151;28;20218;-66
2022/12/19 00:58:39;;;;;;;37.50;15.83;;;;;;;-2.15;78.84;101562.13;5044748;28;20306;-65
2022/12/19 01:01:20;;;;;;;37.13;15.57;;;;;;;-2.22;79.85;101550.34;5043367;28;20289;-66
2022/12/19 01:03:47;;;;;;;39.93;16.00;;;;;;;-2.16;79.38;101565.50;5045659;28;20210;-66
2022/12/19 01:06:33;;;;;;;37.13;15.30;;;;;;;-2.23;79.97;101546.84;5037978;28;20289;-66
2022/12/19 01:09:00;;;;;;;36.53;14.30;;;;;;;-2.12;79.61;101542.50;5041861;28;20796;-66
2022/12/19 01:14:12;;;;;;;37.00;15.73;;;;;;;-2.16;80.04;101531.75;5037503;28;20521;-66
2022/12/19 01:16:47;;;;;;;34.23;14.00;;;;;;;-2.17;80.06;101540.31;5039797;28;20233;-66
2022/12/19 01:19:14;;;;;;;34.87;14.83;;;;;;;-2.22;81.32;101550.34;5048120;28;20560;-66
2022/12/19 01:21:40;;;;;;;38.63;15.80;;;;;;;-2.25;80.77;101537.13;5046938;28;20252;-67
2022/12/19 01:24:08;;;;;;;36.77;15.67;;;;;;;-2.15;81.08;101552.66;5042094;28;20281;-66
2022/12/19 01:26:34;;;;;;;37.07;16.20;;;;;;;-2.17;82.06;101543.81;5046481;28;20203;-67
2022/12/19 01:29:01;;;;;;;41.03;17.07;;;;;;;-2.06;81.39;101545.59;5046738;28;20289;-67
2022/12/19 01:31:27;;;;;;;34.87;15.37;;;;;;;-1.98;81.30;101539.38;5047601;28;20291;-66
2022/12/19 01:33:53;;;;;;;34.97;15.23;;;;;;;-1.93;81.29;101545.84;5047120;28;20230;-66
2022/12/19 01:36:20;;;;;;;36.80;15.67;;;;;;;-1.87;80.27;101545.44;5040910;28;20230;-66
2022/12/19 01:38:46;;;;;;;36.33;14.93;;;;;;;-1.90;80.76;101540.00;5042336;28;20215;-67
2022/12/19 01:41:12;;;;;;;38.70;17.10;;;;;;;-1.96;80.03;101531.72;5047302;28;20647;-67
2022/12/19 01:44:00;;;;;;;33.93;14.50;;;;;;;-1.95;81.24;101539.63;5040735;28;20194;-65
2022/12/19 01:46:46;;;;;;;35.47;15.57;;;;;;;-1.93;81.50;101519.00;5040915;28;20222;-66
2022/12/19 01:49:22;;;;;;;34.47;14.60;;;;;;;-1.90;81.31;101521.81;5040396;28;20632;-67
2022/12/19 01:51:52;;;;;;;38.57;16.07;;;;;;;-1.94;82.04;101515.47;5041735;28;20441;-67
2022/12/19 01:54:23;;;;;;;40.10;15.60;;;;;;;-1.86;81.51;101518.69;5046141;28;20198;-68
2022/12/19 01:56:52;;;;;;;35.10;15.27;;;;;;;-2.00;81.45;101522.78;5043001;28;20301;-66
2022/12/19 01:59:21;;;;;;;37.90;15.40;;;;;;;-2.12;82.57;101516.56;5046215;28;20268;-67
2022/12/19 02:01:54;;;;;;;31.93;14.30;;;;;;;-1.96;82.35;101519.66;5034805;28;20576;-65
2022/12/19 02:04:21;;;;;;;36.80;15.73;;;;;;;-1.93;82.50;101516.38;5041580;28;20206;-66
2022/12/19 02:06:49;;;;;;;38.83;16.93;;;;;;;-1.90;81.39;101519.22;5041116;28;20256;-66
2022/12/19 02:09:16;;;;;;;36.07;15.30;;;;;;;-1.92;81.72;101513.91;5045621;28;20218;-66
2022/12/19 02:11:42;;;;;;;36.00;15.00;;;;;;;-1.96;81.72;101513.53;5036787;28;20199;-65
2022/12/19 02:14:09;;;;;;;35.47;15.10;;;;;;;-2.04;80.96;101504.22;5045494;28;20195;-66
2022/12/19 02:16:35;;;;;;;34.23;15.50;;;;;;;-2.07;82.10;101493.59;5040140;28;20471;-68
2022/12/19 02:19:23;;;;;;;37.97;16.40;;;;;;;-2.12;81.83;101482.84;5043505;28;20271;-67
2022/12/19 02:22:02;;;;;;;36.07;14.73;;;;;;;-2.11;82.33;101505.41;5041684;28;20285;-67
2022/12/19 02:24:46;;;;;;;39.33;16.40;;;;;;;-2.12;82.55;101503.59;5048977;28;20246;-66
2022/12/19 02:27:37;;;;;;;39.17;15.17;;;;;;;-2.02;82.29;101508.75;5049152;28;20666;-67
2022/12/19 02:30:10;;;;;;;38.43;15.77;;;;;;;-2.07;81.83;101497.09;5043393;28;20206;-67
2022/12/19 02:32:48;;;;;;;37.40;16.07;;;;;;;-2.05;82.33;101498.13;5048103;28;20422;-66
2022/12/19 02:35:29;;;;;;;42.40;16.33;;;;;;;-1.96;82.16;101496.28;5048583;28;20268;-68
2022/12/19 02:38:22;;;;;;;37.33;15.53;;;;;;;-1.97;81.71;101470.22;5040010;28;20202;-67
2022/12/19 02:41:00;;;;;;;39.33;15.63;;;;;;;-1.92;81.80;101476.66;5006794;28;20314;-67
2022/12/19 02:43:31;;;;;;;34.20;14.43;;;;;;;-1.90;81.62;101478.59;5043117;28;20222;-66
2022/12/19 02:46:00;;;;;;;36.87;14.13;;;;;;;-1.93;82.27;101480.06;5040074;28;20222;-67
2022/12/19 02:48:28;;;;;;;39.73;16.63;;;;;;;-1.95;82.56;101479.94;5046783;28;20195;-66
2022/12/19 02:50:54;;;;;;;39.90;16.10;;;;;;;-1.84;82.08;101474.69;5046209;28;20207;-66
2022/12/19 02:53:20;;;;;;;41.27;16.50;;;;;;;-1.77;81.24;101482.16;5045187;28;20550;-66
2022/12/19 02:56:04;;;;;;;37.50;15.63;;;;;;;-1.78;81.75;101473.47;5042714;28;20219;-66
2022/12/19 02:58:58;;;;;;;38.83;14.83;;;;;;;-1.79;81.81;101474.25;5043401;28;20256;-65
2022/12/19 03:01:37;;;;;;;39.80;15.73;;;;;;;-1.81;82.15;101473.22;5042593;28;20199;-66
2022/12/19 03:04:30;;;;;;;38.60;15.43;;;;;;;-1.86;82.58;101471.97;5040605;28;20203;-66
2022/12/19 03:07:27;;;;;;;32.20;14.80;;;;;;;-1.84;82.13;101460.00;5038127;28;20203;-66
2022/12/19 03:10:01;;;;;;;33.47;15.00;;;;;;;-1.80;82.47;101466.34;5042328;28;20214;-66
2022/12/19 03:12:50;;;;;;;37.47;15.93;;;;;;;-1.68;82.12;101475.09;5045473;28;20286;-67
2022/12/19 03:15:17;;;;;;;42.37;16.37;;;;;;;-1.73;82.81;101468.66;5037694;28;20231;-66
2022/12/19 03:17:44;;;;;;;41.00;17.70;;;;;;;-1.73;83.28;101473.84;5038487;28;20252;-67
2022/12/19 03:20:30;;;;;;;43.07;17.33;;;;;;;-1.64;82.28;101466.75;5049935;28;20211;-66
2022/12/19 03:22:57;;;;;;;40.43;16.97;;;;;;;-1.66;81.67;101466.66;5048767;28;20226;-65
2022/12/19 03:25:24;;;;;;;39.93;17.10;;;;;;;-1.62;81.94;101465.19;5047815;28;20226;-65
2022/12/19 03:27:53;;;;;;;40.17;17.23;;;;;;;-1.68;81.75;101472.50;5044951;28;20219;-65
2022/12/19 03:30:20;;;;;;;34.23;15.60;;;;;;;-1.71;82.46;101467.97;5043909;28;20685;-68
2022/12/19 03:32:48;;;;;;;37.37;14.80;;;;;;;-1.67;82.63;101479.50;5046798;28;20194;-66
2022/12/19 03:35:20;;;;;;;38.40;17.10;;;;;;;-1.60;82.07;101481.84;5046425;28;20664;-66
2022/12/19 03:37:51;;;;;;;40.23;17.27;;;;;;;-1.67;82.78;101476.91;5042829;28;20237;-66
2022/12/19 03:40:23;;;;;;;39.93;16.20;;;;;;;-1.48;82.82;101480.19;5042392;28;20243;-66
2022/12/19 03:43:08;;;;;;;41.13;16.23;;;;;;;-1.51;82.94;101477.34;5046113;28;20310;-66
2022/12/19 03:46:05;;;;;;;39.37;16.73;;;;;;;-1.55;83.07;101470.13;5046472;28;20258;-66
2022/12/19 03:48:42;;;;;;;36.83;15.63;;;;;;;-1.52;83.63;101465.16;5044098;28;20283;-65
2022/12/19 03:51:27;;;;;;;39.80;16.23;;;;;;;-1.47;83.45;101476.81;5034346;28;20277;-67
2022/12/19 03:54:02;;;;;;;41.53;17.93;;;;;;;-1.44;83.80;101468.34;5037332;28;20204;-66
2022/12/19 03:56:43;;;;;;;43.43;17.33;;;;;;;-1.44;83.57;101458.88;5041069;28;20254;-66
2022/12/19 03:59:28;;;;;;;39.83;17.97;;;;;;;-1.38;83.82;101466.22;5040516;28;20582;-66
2022/12/19 04:01:57;;;;;;;40.20;17.60;;;;;;;-1.31;83.93;101455.50;5039483;28;20612;-65
2022/12/19 04:04:25;;;;;;;43.60;19.30;;;;;;;-1.42;83.62;101459.88;5037144;28;20209;-65
2022/12/19 04:06:53;;;;;;;36.83;15.93;;;;;;;-1.37;83.40;101453.34;5037458;28;20199;-66
2022/12/19 04:09:22;;;;;;;45.40;18.33;;;;;;;-1.31;83.61;101452.91;5037055;28;20199;-66
2022/12/19 04:11:59;;;;;;;40.27;18.47;;;;;;;-1.34;83.16;101457.88;5044133;28;20218;-66
2022/12/19 04:14:37;;;;;;;43.67;17.13;;;;;;;-1.29;82.58;101449.66;5041284;28;20195;-66
2022/12/19 04:17:14;;;;;;;44.10;17.60;;;;;;;-1.27;81.88;101448.06;5039061;28;20791;-67
2022/12/19 04:19:52;;;;;;;40.40;16.33;;;;;;;-1.42;82.52;101446.91;5034779;28;20214;-67
2022/12/19 04:22:28;;;;;;;39.43;16.83;;;;;;;-1.52;83.50;101441.78;5031956;28;20631;-65
2022/12/19 04:24:58;;;;;;;39.43;16.63;;;;;;;-1.50;83.53;101437.59;5038038;28;20276;-65
2022/12/19 04:27:29;;;;;;;40.00;16.67;;;;;;;-1.47;84.04;101427.47;5036960;28;20215;-66
2022/12/19 04:29:58;;;;;;;45.27;18.40;;;;;;;-1.46;83.88;101413.69;5031854;28;20902;-66
2022/12/19 04:32:26;;;;;;;41.97;18.03;;;;;;;-1.52;84.31;101414.91;5040496;28;20198;-65
2022/12/19 04:34:52;;;;;;;39.97;16.73;;;;;;;-1.48;84.39;101420.44;5036608;28;20746;-65
2022/12/19 04:37:19;;;;;;;43.43;18.10;;;;;;;-1.49;84.81;101426.44;5034147;28;20223;-65
2022/12/19 04:39:45;;;;;;;41.60;19.23;;;;;;;-1.50;84.87;101432.41;5035284;28;20737;-65
2022/12/19 04:42:11;;;;;;;39.97;17.07;;;;;;;-1.39;84.80;101425.44;5032495;28;20220;-66
2022/12/19 04:44:38;;;;;;;41.27;17.97;;;;;;;-1.31;82.47;101429.53;5035940;28;20274;-65
2022/12/19 04:47:04;;;;;;;40.43;16.43;;;;;;;-1.32;81.65;101413.03;5036559;28;20201;-67
2022/12/19 04:49:30;;;;;;;36.37;15.53;;;;;;;-1.31;81.64;101404.47;5034534;28;20245;-66
2022/12/19 04:51:57;;;;;;;42.43;16.70;;;;;;;-1.36;81.81;101415.28;5037164;28;20778;-65
2022/12/19 04:54:24;;;;;;;43.30;17.43;;;;;;;-1.45;82.29;101406.78;5032764;28;20246;-65
2022/12/19 04:56:51;;;;;;;39.53;17.33;;;;;;;-1.48;82.79;101420.44;5037226;28;20728;-65
2022/12/19 04:59:18;;;;;;;38.40;16.73;;;;;;;-1.36;83.49;101420.47;5033795;28;20202;-67
2022/12/19 05:01:44;;;;;;;42.20;17.50;;;;;;;-1.39;83.78;101426.34;5038112;28;20270;-66
2022/12/19 05:04:10;;;;;;;38.53;17.37;;;;;;;-1.34;83.22;101413.72;5038035;28;20628;-66
2022/12/19 05:06:37;;;;;;;44.00;18.30;;;;;;;-1.38;83.67;101414.25;5037316;28;20204;-68
2022/12/19 05:09:03;;;;;;;40.53;17.73;;;;;;;-1.36;84.13;101413.59;5029441;28;20199;-65
2022/12/19 05:11:30;;;;;;;41.53;17.80;;;;;;;-1.35;84.06;101424.88;5034303;28;20689;-65
2022/12/19 05:13:58;;;;;;;44.30;17.67;;;;;;;-1.33;84.68;101410.31;5033061;28;20200;-65
2022/12/19 05:16:24;;;;;;;42.50;18.73;;;;;;;-1.35;84.45;101399.81;5056549;22;20227;-64
2022/12/19 05:18:52;;;;;;;43.73;18.90;;;;;;;-1.10;84.09;101406.91;5044377;28;20346;-65
2022/12/19 05:21:20;;;;;;;42.13;17.97;;;;;;;-1.26;83.99;101392.72;5045363;28;20218;-64
2022/12/19 05:23:48;;;;;;;46.70;19.57;;;;;;;-1.29;83.87;101391.59;5048633;28;20215;-67
2022/12/19 05:26:14;;;;;;;44.50;19.57;;;;;;;-1.25;84.30;101401.41;5036503;28;20244;-67
2022/12/19 05:28:41;;;;;;;38.43;18.47;;;;;;;-1.20;84.59;101396.56;5042691;28;20571;-65
2022/12/19 05:31:14;;;;;;;39.87;18.20;;;;;;;-0.99;83.67;101393.00;5042835;28;20271;-66
2022/12/19 05:33:41;;;;;;;43.93;20.03;;;;;;;-1.02;83.33;101397.97;5040286;28;20201;-67
2022/12/19 05:36:09;;;;;;;38.30;17.90;;;;;;;-1.02;83.00;101403.19;5045874;28;20214;-68
2022/12/19 05:38:35;;;;;;;43.03;18.30;;;;;;;-0.96;82.52;101385.44;5039623;28;20231;-66
2022/12/19 05:41:07;;;;;;;48.17;19.07;;;;;;;-1.00;83.11;101392.09;5037927;28;20225;-67
2022/12/19 05:43:33;;;;;;;45.37;18.63;;;;;;;-1.10;84.02;101381.81;5041285;28;20281;-63
2022/12/19 05:45:59;;;;;;;45.20;18.63;;;;;;;-1.09;84.50;101393.09;5041481;28;20246;-67
2022/12/19 05:48:26;;;;;;;41.23;19.37;;;;;;;-1.05;84.34;101385.66;5044843;28;20483;-65
2022/12/19 05:50:52;;;;;;;50.27;20.23;;;;;;;-0.96;84.12;101399.34;5044554;28;20245;-67
2022/12/19 05:53:18;;;;;;;43.50;19.80;;;;;;;-0.93;83.59;101398.66;5040250;28;20618;-65
2022/12/19 05:55:51;;;;;;;42.47;18.63;;;;;;;-0.97;83.40;101402.72;5043041;28;20250;-65
2022/12/19 05:58:20;;;;;;;42.07;18.67;;;;;;;-1.01;83.69;101400.69;5040661;28;20266;-65
2022/12/19 06:00:47;;;;;;;39.53;17.93;;;;;;;-1.04;83.83;101400.47;5037286;28;20275;-66
2022/12/19 06:03:13;;;;;;;43.37;19.47;;;;;;;-0.99;83.38;101401.72;5035133;28;20270;-65
2022/12/19 06:05:39;;;;;;;45.40;20.60;;;;;;;-1.04;83.71;101402.16;5037245;28;20225;-65
2022/12/19 06:08:06;;;;;;;43.23;19.67;;;;;;;-1.01;84.29;101403.28;5041325;28;20569;-65
2022/12/19 06:10:33;;;;;;;40.67;17.63;;;;;;;-0.89;83.96;101405.91;5034577;28;20204;-68
2022/12/19 06:12:59;;;;;;;40.77;18.60;;;;;;;-0.95;84.01;101408.03;5035525;28;20207;-66
2022/12/19 06:15:26;;;;;;;43.67;19.73;;;;;;;-0.79;83.62;101403.22;5040399;28;20228;-65
2022/12/19 06:17:53;;;;;;;46.97;20.50;;;;;;;-0.67;82.83;101403.22;5038333;28;20195;-65
2022/12/19 06:20:20;;;;;;;42.00;17.67;;;;;;;-0.77;83.33;101406.84;5037735;28;20216;-66
2022/12/19 06:22:46;;;;;;;41.57;17.87;;;;;;;-0.80;84.05;101416.06;5037008;28;20192;-67
2022/12/19 06:25:12;;;;;;;45.47;19.87;;;;;;;-0.79;84.62;101415.31;5042020;28;20250;-67
2022/12/19 06:27:38;;;;;;;43.33;18.87;;;;;;;-0.87;84.47;101409.50;5041049;28;20209;-67
2022/12/19 06:30:05;;;;;;;37.03;17.30;;;;;;;-0.64;81.86;101424.25;5041060;28;20721;-65
2022/12/19 06:32:33;;;;;;;44.00;18.50;;;;;;;-0.79;82.05;101426.63;5041816;28;20254;-66
2022/12/19 06:35:04;;;;;;;40.30;18.87;;;;;;;-0.83;83.14;101423.66;5038815;28;20471;-65
2022/12/19 06:37:30;;;;;;;46.67;19.87;;;;;;;-0.90;82.93;101416.19;5046441;28;20236;-68
2022/12/19 06:39:56;;;;;;;48.87;18.73;;;;;;;-0.90;83.71;101418.78;5042574;28;20723;-67
2022/12/19 06:42:23;;;;;;;44.10;20.00;;;;;;;-0.92;83.83;101399.56;5042999;28;20204;-70
2022/12/19 06:44:52;;;;;;;46.17;20.00;;;;;;;-0.73;82.78;101402.78;5043380;28;20662;-68
2022/12/19 06:47:21;;;;;;;42.47;18.03;;;;;;;-0.81;81.41;101391.78;5042152;28;20206;-66
2022/12/19 06:49:49;;;;;;;41.90;17.87;;;;;;;-0.69;81.34;101410.91;5042947;28;20203;-66
2022/12/19 06:52:15;;;;;;;40.90;17.03;;;;;;;-0.73;81.54;101419.28;5046736;28;20193;-69
2022/12/19 06:54:41;;;;;;;41.40;18.93;;;;;;;-0.82;81.71;101409.84;5042703;28;20203;-66
2022/12/19 06:57:08;;;;;;;42.90;19.50;;;;;;;-0.73;81.85;101397.56;5043371;28;20274;-65
2022/12/19 06:59:34;;;;;;;42.57;19.70;;;;;;;-0.89;82.60;101366.00;5042633;28;20348;-64
2022/12/19 07:02:12;;;;;;;45.13;19.53;;;;;;;-0.73;82.40;101403.66;5042293;28;20289;-65
2022/12/19 07:04:47;;;;;;;40.47;19.20;;;;;;;-0.68;82.36;101389.31;5051108;28;20230;-68
2022/12/19 07:07:14;;;;;;;42.80;19.47;;;;;;;-0.65;81.56;101394.72;5053274;28;20196;-68
2022/12/19 07:09:40;;;;;;;50.17;26.23;;;;;;;-0.65;82.31;101392.13;5059907;28;20477;-65
2022/12/19 07:12:07;;;;;;;44.90;20.50;;;;;;;-0.65;82.79;101392.13;5066016;28;20267;-66
2022/12/19 07:14:33;;;;;;;45.97;19.27;;;;;;;-0.66;82.27;101381.63;5058140;28;20245;-68
2022/12/19 07:17:00;;;;;;;40.13;19.47;;;;;;;-0.49;81.81;101388.94;5061120;28;20300;-66
2022/12/19 07:19:28;;;;;;;45.03;19.33;;;;;;;-0.56;82.06;101398.81;5055883;28;20235;-66
2022/12/19 07:21:55;;;;;;;38.07;17.73;;;;;;;-0.57;82.16;101394.38;5063538;28;20811;-66
2022/12/19 07:24:21;;;;;;;45.50;19.60;;;;;;;-0.57;82.95;101399.59;5063042;28;20300;-67
2022/12/19 07:26:48;;;;;;;41.87;18.37;;;;;;;-0.55;83.07;101400.59;5061673;28;20691;-66
2022/12/19 07:29:14;;;;;;;40.30;18.63;;;;;;;-0.55;83.26;101404.13;5064087;28;20196;-66
2022/12/19 07:31:41;;;;;;;40.63;19.07;;;;;;;-0.58;83.11;101401.28;5063582;28;20718;-65
2022/12/19 07:34:07;;;;;;;43.03;19.30;;;;;;;-0.48;82.79;101395.97;5059304;28;20223;-65
2022/12/19 07:36:34;;;;;;;40.37;19.73;;;;;;;-0.44;82.33;101394.47;5060935;28;20272;-66
2022/12/19 07:39:00;;;;;;;41.23;18.73;;;;;;;-0.46;82.49;101406.47;5068655;28;20578;-65
2022/12/19 07:41:26;;;;;;;40.53;18.83;;;;;;;-0.46;83.07;101404.78;5065390;28;20257;-66
2022/12/19 07:43:52;;;;;;;43.23;18.30;;;;;;;-0.39;83.63;101400.97;5062710;28;20205;-65
2022/12/19 07:46:20;;;;;;;38.40;19.00;;;;;;;-0.39;82.55;101406.16;5063506;28;20216;-68
2022/12/19 07:48:47;;;;;;;45.93;18.60;;;;;;;-0.35;83.01;101397.78;5067753;28;20220;-65
2022/12/19 07:51:13;;;;;;;43.00;18.57;;;;;;;-0.19;81.56;101386.78;5059052;28;20231;-66
2022/12/19 07:53:39;;;;;;;53.10;26.13;;;;;;;-0.27;81.70;101398.34;5065401;28;20535;-67
2022/12/19 07:56:06;;;;;;;46.97;21.40;;;;;;;-0.37;82.56;101397.69;5067909;28;20222;-64
2022/12/19 07:58:33;;;;;;;39.57;19.17;;;;;;;-0.30;82.10;101403.31;5067343;28;20208;-63
2022/12/19 08:01:02;;;;;;;42.73;20.87;;;;;;;-0.32;81.81;101414.53;5064767;28;20225;-65
2022/12/19 08:03:28;;;;;;;41.70;18.43;;;;;;;-0.36;82.68;101409.00;5064628;28;20713;-65
2022/12/19 08:06:03;;;;;;;43.10;19.87;;;;;;;-0.26;82.07;101419.25;5065414;28;20220;-65
2022/12/19 08:08:30;;;;;;;44.60;19.07;;;;;;;-0.21;81.29;101410.09;5063412;28;20199;-65
2022/12/19 08:11:09;;;;;;;40.67;19.50;;;;;;;-0.18;80.40;101409.41;5062430;28;21323;-65
2022/12/19 08:13:36;;;;;;;41.07;18.70;;;;;;;-0.22;80.93;101407.38;5065937;28;20199;-65
2022/12/19 08:16:11;;;;;;;40.57;18.40;;;;;;;-0.23;80.65;101415.97;5068816;28;20307;-65
2022/12/19 08:18:37;;;;;;;38.80;18.40;;;;;;;-0.24;81.19;101412.47;5065317;28;20553;-65
2022/12/19 08:21:04;;;;;;;41.77;18.33;;;;;;;-0.23;81.68;101400.38;5065184;28;20270;-64
2022/12/19 08:23:31;;;;;;;42.13;19.40;;;;;;;-0.13;81.08;101400.22;5064908;28;20270;-65
2022/12/19 08:26:02;;;;;;;41.87;18.00;;;;;;;-0.19;80.61;101405.91;5060500;28;20297;-65
2022/12/19 08:28:31;;;;;;;40.17;18.70;;;;;;;-0.22;81.21;101397.88;5062998;28;20571;-67
2022/12/19 08:31:04;;;;;;;45.03;19.17;;;;;;;-0.10;81.04;101385.72;5067799;28;20288;-66
2022/12/19 08:33:30;;;;;;;41.60;18.57;;;;;;;-0.07;81.13;101390.25;5065862;28;20282;-66
2022/12/19 08:35:56;;;;;;;45.93;20.77;;;;;;;-0.10;80.85;101385.72;5065680;28;20722;-66
2022/12/19 08:38:23;;;;;;;41.17;19.93;;;;;;;-0.05;80.81;101391.25;5064694;28;20251;-67
2022/12/19 08:40:53;;;;;;;44.70;20.23;;;;;;;-0.05;80.94;101386.06;5063211;28;20310;-68
2022/12/19 08:43:20;;;;;;;42.47;19.10;;;;;;;-0.07;81.23;101391.16;5066470;28;20221;-65
2022/12/19 08:45:48;;;;;;;41.70;18.73;;;;;;;-0.14;81.61;101385.41;5064788;28;20212;-68
2022/12/19 08:48:15;;;;;;;44.57;19.17;;;;;;;-0.12;81.35;101389.00;5066790;28;20205;-66
2022/12/19 08:50:52;;;;;;;41.50;19.67;;;;;;;-0.19;81.94;101389.38;5066222;28;20204;-66
2022/12/19 08:53:19;;;;;;;46.00;18.20;;;;;;;-0.12;81.02;101397.72;5064688;28;20193;-70
2022/12/19 08:55:56;;;;;;;37.97;18.17;;;;;;;-0.11;81.19;101390.81;5064716;28;20785;-70
2022/12/19 08:58:23;;;;;;;46.90;20.03;;;;;;;-0.02;81.12;101394.97;5066492;28;20196;-68
2022/12/19 09:00:52;;;;;;;38.20;18.73;;;;;;;-0.10;80.88;101377.00;5064998;28;20241;-69
2022/12/19 09:03:24;;;;;;;46.00;17.67;;;;;;;0.10;80.50;101388.88;5065388;28;20263;-68
2022/12/19 09:05:59;;;;;;;41.13;17.70;;;;;;;-0.01;80.96;101383.78;5065699;28;20341;-68
2022/12/19 09:08:36;;;;;;;40.47;18.43;;;;;;;0.08;80.84;101391.38;5063858;28;20414;-67
2022/12/19 09:11:12;;;;;;;42.27;17.67;;;;;;;-0.01;81.12;101375.97;5061612;28;20190;-67
2022/12/19 09:13:40;;;;;;;49.73;19.47;;;;;;;0.14;81.56;101383.06;5058545;28;20189;-67
2022/12/19 09:16:09;;;;;;;38.80;18.40;;;;;;;0.10;81.15;101389.75;5068250;28;20259;-67
2022/12/19 09:18:35;;;;;;;44.60;19.53;;;;;;;0.14;81.04;101377.88;5062649;28;20236;-69
2022/12/19 09:21:02;;;;;;;43.63;18.80;;;;;;;0.34;80.40;101381.84;5067999;28;20742;-66
2022/12/19 09:23:33;;;;;;;44.07;19.20;;;;;;;0.34;80.53;101379.25;5064262;28;20251;-68
2022/12/19 09:26:06;;;;;;;44.40;20.13;;;;;;;0.36;80.31;101385.47;5067359;28;20222;-66
2022/12/19 09:28:33;;;;;;;42.77;18.37;;;;;;;0.37;80.61;101385.56;5066997;28;20260;-69
2022/12/19 09:31:03;;;;;;;37.60;18.57;;;;;;;0.40;79.98;101392.69;5066702;28;20197;-66
2022/12/19 09:33:32;;;;;;;45.23;19.37;;;;;;;0.48;80.01;101382.03;5064573;28;20209;-68
2022/12/19 09:36:10;;;;;;;43.30;18.57;;;;;;;0.33;80.49;101393.97;5065879;28;20250;-66
2022/12/19 09:38:36;;;;;;;45.07;18.93;;;;;;;0.31;80.52;101380.84;5064791;28;20644;-66
2022/12/19 09:41:15;;;;;;;36.60;18.40;;;;;;;0.36;79.60;101373.34;5064530;28;20217;-71
2022/12/19 09:44:12;;;;;;;41.97;19.63;;;;;;;0.35;80.27;101387.16;5059446;28;20677;-66
2022/12/19 09:46:55;;;;;;;42.93;19.50;;;;;;;0.35;80.22;101381.97;5066529;28;20638;-66
2022/12/19 09:49:28;;;;;;;44.00;19.73;;;;;;;0.51;79.53;101382.25;5058379;28;20214;-66
2022/12/19 09:51:58;;;;;;;43.90;19.23;;;;;;;0.49;79.25;101376.03;5066449;28;20680;-66
2022/12/19 09:54:34;;;;;;;41.30;18.60;;;;;;;0.50;79.62;101384.75;5063640;28;20209;-67
2022/12/19 09:57:12;;;;;;;44.23;19.80;;;;;;;0.45;79.68;101386.13;5057108;28;20254;-66
2022/12/19 09:59:50;;;;;;;40.63;18.53;;;;;;;0.43;79.75;101373.00;5049003;28;21442;-67
2022/12/19 10:02:37;;;;;;;42.90;19.57;;;;;;;0.44;79.78;101377.41;5061220;28;20249;-66
2022/12/19 10:05:26;;;;;;;44.53;17.17;;;;;;;0.45;80.13;101368.78;5063671;28;20224;-66
2022/12/19 10:08:25;;;;;;;41.60;19.70;;;;;;;0.38;80.33;101353.50;5061414;28;20273;-66
2022/12/19 10:11:05;;;;;;;47.53;19.10;;;;;;;0.39;80.35;101344.91;5064287;28;20293;-65
2022/12/19 10:14:16;;;;;;;42.93;19.93;;;;;;;0.43;80.29;101349.56;5059188;28;20205;-68
2022/12/19 10:16:54;;;;;;;38.97;18.23;;;;;;;0.56;80.49;101346.06;5059580;28;20543;-67
2022/12/19 10:20:01;;;;;;;42.67;18.97;;;;;;;0.65;80.29;101341.47;5061642;28;20285;-69
2022/12/19 10:23:08;;;;;;;40.73;19.83;;;;;;;0.66;80.41;101343.28;5065637;28;20221;-67
2022/12/19 10:26:02;;;;;;;41.97;19.33;;;;;;;0.68;79.97;101340.78;5063300;28;20221;-69
2022/12/19 10:29:04;;;;;;;47.10;20.70;;;;;;;0.60;80.45;101333.34;5062288;28;20205;-70
2022/12/19 10:31:55;;;;;;;50.53;21.63;;;;;;;0.54;80.50;101335.53;5059184;28;20192;-65
2022/12/19 10:34:28;;;;;;;47.67;19.60;;;;;;;0.58;81.04;101336.66;5061064;28;20581;-65
2022/12/19 10:36:58;;;;;;;42.37;19.37;;;;;;;0.69;80.37;101353.00;5059532;28;20317;-70
2022/12/19 10:40:26;;;;;;;45.47;20.63;;;;;;;0.70;80.15;101349.59;5062197;28;20199;-67
2022/12/19 10:42:57;;;;;;;45.27;19.83;;;;;;;0.72;80.13;101335.88;5020196;28;20281;-66
2022/12/19 10:45:35;;;;;;;45.37;20.37;;;;;;;0.70;80.43;101342.69;5068141;28;20253;-64
2022/12/19 10:48:03;;;;;;;42.80;20.60;;;;;;;0.73;80.96;101339.38;5067661;28;20196;-65
2022/12/19 10:50:29;;;;;;;40.83;19.63;;;;;;;0.75;80.26;101325.66;5066879;28;20725;-66
2022/12/19 10:53:07;;;;;;;49.13;22.73;;;;;;;0.79;80.35;101332.88;5064499;28;20233;-65
2022/12/19 10:55:33;;;;;;;44.80;20.30;;;;;;;0.91;80.34;101319.78;5067263;28;21025;-67
2022/12/19 10:58:11;;;;;;;38.83;19.53;;;;;;;0.98;80.00;101319.38;5068408;28;20200;-66
2022/12/19 11:00:45;;;;;;;43.17;19.57;;;;;;;1.05;79.63;101318.06;5068220;28;20197;-68
2022/12/19 11:03:14;;;;;;;40.80;19.67;;;;;;;1.04;79.62;101321.50;5066094;28;20206;-65
2022/12/19 11:05:50;;;;;;;45.70;21.03;;;;;;;1.13;79.49;101320.38;5064168;28;20227;-65
2022/12/19 11:08:28;;;;;;;44.50;18.33;;;;;;;1.21;79.84;101311.38;5069042;28;20227;-64
2022/12/19 11:11:05;;;;;;;47.37;20.77;;;;;;;1.28;79.27;101296.13;5064914;28;20592;-65
2022/12/19 11:13:51;;;;;;;42.37;19.90;;;;;;;1.32;79.82;101295.50;5062032;28;20194;-64
2022/12/19 11:16:37;;;;;;;46.33;20.73;;;;;;;1.43;79.63;101303.22;5082949;22;20234;-65
2022/12/19 11:19:36;;;;;;;46.37;21.00;;;;;;;1.50;79.04;101302.78;5065197;28;20432;-69
2022/12/19 11:22:28;;;;;;;47.27;20.33;;;;;;;1.57;78.08;101296.25;5062682;28;20245;-70
2022/12/19 11:25:21;;;;;;;43.60;20.13;;;;;;;1.61;77.86;101289.56;5071515;28;20807;-68
2022/12/19 11:28:17;;;;;;;43.30;19.97;;;;;;;1.61;77.01;101272.19;5067290;28;20270;-70
2022/12/19 11:31:09;;;;;;;47.57;19.63;;;;;;;1.64;76.95;101288.03;5066565;28;20208;-71
2022/12/19 11:34:03;;;;;;;41.37;19.47;;;;;;;1.63;77.83;101291.44;5067713;28;20229;-69
2022/12/19 11:36:40;;;;;;;44.97;20.67;;;;;;;1.58;78.24;101285.91;5066905;28;20225;-69
2022/12/19 11:39:20;;;;;;;39.47;19.17;;;;;;;1.57;77.89;101280.59;5066023;28;20256;-69